createdAt,value
2022-10-26T00:02:54.289Z,5.50
2022-10-26T00:06:56.318Z,5.53
2022-10-26T00:10:58.339Z,7.77
2022-10-26T00:15:00.728Z,4.73
2022-10-26T00:19:10.097Z,5.43
2022-10-26T00:23:11.890Z,5.20
2022-10-26T00:27:13.856Z,8.13
2022-10-26T00:31:16.573Z,7.80
2022-10-26T00:35:23.351Z,4.63
2022-10-26T00:39:26.143Z,6.37
2022-10-26T00:43:27.993Z,10.87
2022-10-26T00:47:43.279Z,5.30
2022-10-26T00:51:51.149Z,5.20
2022-10-26T00:55:53.163Z,5.00
2022-10-26T00:59:55.003Z,4.50
2022-10-26T01:03:57.148Z,6.13
2022-10-26T01:07:59.193Z,6.80
2022-10-26T01:12:01.148Z,6.03
2022-10-26T01:16:13.096Z,6.00
2022-10-26T01:20:23.401Z,10.83
2022-10-26T01:24:31.347Z,6.47
2022-10-26T01:28:58.612Z,4.97
2022-10-26T01:33:33.613Z,6.60
2022-10-26T01:37:39.366Z,5.93
2022-10-26T01:41:48.647Z,11.03
2022-10-26T01:45:50.546Z,6.27
2022-10-26T01:49:55.477Z,5.57
2022-10-26T01:53:58.376Z,6.23
2022-10-26T01:58:16.052Z,6.90
2022-10-26T02:02:48.968Z,4.60
2022-10-26T02:07:27.972Z,6.20
2022-10-26T02:11:42.367Z,7.73
2022-10-26T02:16:17.918Z,6.73
2022-10-26T02:20:35.961Z,5.57
2022-10-26T02:24:37.947Z,6.30
2022-10-26T02:28:46.682Z,6.87
2022-10-26T02:32:51.737Z,5.00
2022-10-26T02:36:54.699Z,3.27
2022-10-26T02:40:56.693Z,5.57
2022-10-26T02:45:03.377Z,6.17
2022-10-26T02:49:05.341Z,4.37
2022-10-26T02:53:17.874Z,6.83
2022-10-26T02:57:39.821Z,4.90
2022-10-26T03:01:41.800Z,5.57
2022-10-26T03:05:43.852Z,6.47
2022-10-26T03:09:45.765Z,2.93
2022-10-26T03:13:47.620Z,6.50
2022-10-26T03:17:49.579Z,5.90
2022-10-26T03:21:51.642Z,4.00
2022-10-26T03:25:57.944Z,3.17
2022-10-26T03:29:59.850Z,6.63
2022-10-26T03:34:01.768Z,4.37
2022-10-26T03:38:03.725Z,3.33
2022-10-26T03:42:05.717Z,2.67
2022-10-26T03:46:07.672Z,3.67
2022-10-26T03:50:10.794Z,2.97
2022-10-26T03:54:12.693Z,4.77
2022-10-26T03:58:14.813Z,2.87
2022-10-26T04:02:16.957Z,6.20
2022-10-26T04:06:18.881Z,3.87
2022-10-26T04:10:21.093Z,3.57
2022-10-26T04:14:26.148Z,3.60
2022-10-26T04:18:29.530Z,4.90
2022-10-26T04:22:31.396Z,3.27
2022-10-26T04:26:33.344Z,5.70
2022-10-26T04:30:36.016Z,5.70
2022-10-26T04:34:38.024Z,3.03
2022-10-26T04:38:39.917Z,5.47
2022-10-26T04:42:46.540Z,7.43
2022-10-26T04:46:48.824Z,3.27
2022-10-26T04:50:50.644Z,5.57
2022-10-26T04:54:52.707Z,4.30
2022-10-26T04:58:54.933Z,3.37
2022-10-26T05:03:03.520Z,5.27
2022-10-26T05:07:05.402Z,5.60
2022-10-26T05:11:07.541Z,5.80
2022-10-26T05:15:12.008Z,5.13
2022-10-26T05:19:17.172Z,5.03
2022-10-26T05:23:19.115Z,6.00
2022-10-26T05:32:19.472Z,3.83
2022-10-26T05:36:37.454Z,6.03
2022-10-26T05:40:56.013Z,3.93
2022-10-26T05:44:57.887Z,3.40
2022-10-26T05:48:59.844Z,3.13
2022-10-26T05:53:01.709Z,4.93
2022-10-26T05:57:04.085Z,5.73
2022-10-26T06:01:26.694Z,4.77
2022-10-26T06:05:29.649Z,2.97
2022-10-26T06:09:36.645Z,4.63
2022-10-26T06:13:38.810Z,3.00
2022-10-26T06:18:09.098Z,2.90
2022-10-26T06:22:49.593Z,3.43
2022-10-26T06:27:04.761Z,4.17
2022-10-26T06:31:06.981Z,2.77
2022-10-26T06:35:31.230Z,3.97
2022-10-26T06:39:37.495Z,5.47
2022-10-26T06:43:39.845Z,3.93
2022-10-26T06:48:11.320Z,3.10
2022-10-26T06:52:42.556Z,3.33
2022-10-26T06:56:44.753Z,4.13
2022-10-26T07:00:49.165Z,5.23
2022-10-26T07:04:51.324Z,5.50
2022-10-26T07:08:53.515Z,6.77
2022-10-26T07:12:55.836Z,4.97
2022-10-26T07:16:57.992Z,6.60
2022-10-26T07:21:05.012Z,6.17
2022-10-26T07:25:08.181Z,6.03
2022-10-26T07:29:10.193Z,7.90
2022-10-26T07:33:13.869Z,5.77
2022-10-26T07:37:18.798Z,7.70
2022-10-26T07:41:20.953Z,8.30
2022-10-26T07:45:22.960Z,5.30
2022-10-26T07:49:27.604Z,7.00
2022-10-26T07:58:36.677Z,7.30
2022-10-26T08:02:38.632Z,5.43
2022-10-26T08:06:41.951Z,6.40
2022-10-26T08:10:45.050Z,6.90
2022-10-26T08:14:47.017Z,9.43
2022-10-26T08:18:54.554Z,6.83
2022-10-26T08:23:00.606Z,6.87
2022-10-26T08:27:02.611Z,9.97
2022-10-26T08:31:07.886Z,8.67
2022-10-26T08:35:10.402Z,9.23
2022-10-26T08:40:27.087Z,8.30
2022-10-26T08:44:48.020Z,9.70
2022-10-26T08:48:54.714Z,8.83
2022-10-26T08:53:23.858Z,8.50
2022-10-26T08:57:29.056Z,8.93
2022-10-26T09:01:32.389Z,7.87
2022-10-26T09:05:53.134Z,10.47
2022-10-26T09:11:02.488Z,8.17
2022-10-26T09:15:55.123Z,9.10
2022-10-26T09:20:10.410Z,7.87
2022-10-26T09:24:52.587Z,9.80
2022-10-26T09:29:07.381Z,8.80
2022-10-26T09:33:47.420Z,10.77
2022-10-26T09:38:36.731Z,9.03
2022-10-26T09:43:00.786Z,11.90
2022-10-26T09:47:18.940Z,9.60
2022-10-26T09:51:20.910Z,8.73
2022-10-26T09:55:23.121Z,10.67
2022-10-26T09:59:25.153Z,12.70
2022-10-26T10:03:32.798Z,10.23
2022-10-26T10:07:41.845Z,11.83
2022-10-26T10:16:30.822Z,9.23
2022-10-26T10:20:51.732Z,8.83
2022-10-26T10:32:04.877Z,8.07
2022-10-26T10:37:35.925Z,10.10
2022-10-26T10:41:54.510Z,8.07
2022-10-26T10:45:59.653Z,9.00
2022-10-26T10:50:17.212Z,6.33
2022-10-26T11:00:06.082Z,6.40
2022-10-26T11:04:34.314Z,8.07
2022-10-26T11:09:06.561Z,7.00
2022-10-26T11:13:21.155Z,5.90
2022-10-26T11:33:00.518Z,5.47
2022-10-26T11:41:51.511Z,5.27
2022-10-26T11:46:20.634Z,5.43
2022-10-26T11:50:29.473Z,6.03
2022-10-26T11:54:55.918Z,4.97
2022-10-26T12:04:38.665Z,7.30
2022-10-26T12:09:35.694Z,4.90
2022-10-26T12:26:39.965Z,1.17
2022-10-26T12:30:45.670Z,2.23
2022-10-26T12:35:31.091Z,0.90
2022-10-26T12:40:33.606Z,2.80
2022-10-26T12:44:48.030Z,2.80
2022-10-26T12:48:51.075Z,2.10
2022-10-26T12:53:30.171Z,0.70
2022-10-26T12:57:58.583Z,1.50
2022-10-26T13:02:34.656Z,1.30
2022-10-26T13:07:21.672Z,2.30
2022-10-26T13:16:20.525Z,2.67
2022-10-26T13:20:22.631Z,1.80
2022-10-26T13:24:25.902Z,1.37
2022-10-26T13:28:33.389Z,1.63
2022-10-26T13:32:42.821Z,1.77
2022-10-26T13:37:12.291Z,0.83
2022-10-26T13:41:44.206Z,3.03
2022-10-26T13:45:59.131Z,2.93
2022-10-26T13:50:11.523Z,2.27
2022-10-26T13:54:37.035Z,1.50
2022-10-26T13:59:05.071Z,1.60
2022-10-26T14:03:17.709Z,5.27
2022-10-26T14:07:24.523Z,1.47
2022-10-26T14:11:58.598Z,4.23
2022-10-26T14:16:00.572Z,1.80
2022-10-26T14:20:06.851Z,1.90
2022-10-26T14:24:31.503Z,1.23
2022-10-26T14:28:47.874Z,1.20
2022-10-26T14:32:50.511Z,2.77
2022-10-26T14:37:02.317Z,1.30
2022-10-26T14:41:04.233Z,2.77
2022-10-26T14:45:09.433Z,1.70
2022-10-26T14:49:24.518Z,3.47
2022-10-26T14:54:06.660Z,5.53
2022-10-26T14:58:23.082Z,4.90
2022-10-26T15:02:28.860Z,4.73
2022-10-26T15:06:43.852Z,4.77
2022-10-26T15:10:49.803Z,4.90
2022-10-26T15:15:16.394Z,7.47
2022-10-26T15:19:31.437Z,4.67
2022-10-26T15:23:33.336Z,6.03
2022-10-26T15:32:01.364Z,4.30
2022-10-26T15:36:20.164Z,6.63
2022-10-26T15:40:22.797Z,6.73
2022-10-26T15:44:27.510Z,6.50
2022-10-26T15:48:31.502Z,6.37
2022-10-26T15:52:33.661Z,6.13
2022-10-26T16:02:34.586Z,5.73
2022-10-26T16:06:36.616Z,8.53
2022-10-26T16:10:38.526Z,6.57
2022-10-26T16:15:04.303Z,6.77
2022-10-26T16:19:25.542Z,9.03
2022-10-26T16:23:28.324Z,6.93
2022-10-26T16:27:35.899Z,7.33
2022-10-26T16:31:40.529Z,7.67
2022-10-26T16:35:45.021Z,8.23
2022-10-26T16:39:50.376Z,8.87
2022-10-26T16:43:58.273Z,9.13
2022-10-26T16:48:00.542Z,9.57
2022-10-26T16:52:04.336Z,9.30
2022-10-26T16:56:21.513Z,7.73
2022-10-26T17:00:23.745Z,7.40
2022-10-26T17:04:26.113Z,8.97
2022-10-26T17:08:28.387Z,10.70
2022-10-26T17:12:35.772Z,9.53
2022-10-26T17:16:39.491Z,10.27
2022-10-26T17:20:54.132Z,10.97
2022-10-26T17:25:04.023Z,11.93
2022-10-26T17:29:21.480Z,10.80
2022-10-26T17:33:23.941Z,11.37
2022-10-26T17:37:31.539Z,11.20
2022-10-26T17:41:36.755Z,16.50
2022-10-26T17:45:58.632Z,11.13
2022-10-26T17:50:06.673Z,14.50
2022-10-26T17:54:40.638Z,12.17
2022-10-26T17:58:43.097Z,14.80
2022-10-26T18:02:53.909Z,12.70
2022-10-26T18:07:19.022Z,12.13
2022-10-26T18:11:27.785Z,11.27
2022-10-26T18:15:39.385Z,12.00
2022-10-26T18:19:46.420Z,13.17
2022-10-26T18:28:40.869Z,13.37
2022-10-26T18:33:25.315Z,13.30
2022-10-26T18:38:28.948Z,10.50
2022-10-26T18:53:41.824Z,14.57
2022-10-26T19:24:11.260Z,11.23
2022-10-26T19:28:15.796Z,15.70
2022-10-26T19:32:21.345Z,14.23
2022-10-26T19:36:23.356Z,13.10
2022-10-26T19:40:25.653Z,13.37
2022-10-26T19:44:32.463Z,13.80
2022-10-26T19:48:36.821Z,13.33
2022-10-26T19:52:45.198Z,16.73
2022-10-26T19:56:53.451Z,12.10
2022-10-26T20:01:02.234Z,12.70
2022-10-26T20:05:07.854Z,14.53
2022-10-26T20:09:25.811Z,15.47
2022-10-26T20:13:28.899Z,13.27
2022-10-26T20:17:32.115Z,16.33
2022-10-26T20:22:28.685Z,15.73
2022-10-26T20:55:47.501Z,18.13
2022-10-26T20:59:53.530Z,12.80
2022-10-26T21:04:26.924Z,14.43
2022-10-26T21:08:29.022Z,15.43
2022-10-26T21:12:30.978Z,15.00
2022-10-26T21:17:58.256Z,12.00
2022-10-26T21:23:01.106Z,12.07
2022-10-26T21:27:51.467Z,14.67
2022-10-26T21:36:16.519Z,18.20
2022-10-26T21:46:26.132Z,16.63
2022-10-26T22:02:42.660Z,13.67
2022-10-26T22:07:10.348Z,14.60
2022-10-26T22:11:31.060Z,15.67
2022-10-26T22:16:09.918Z,14.97
2022-10-26T22:20:27.973Z,13.70
2022-10-26T22:25:32.415Z,17.77
2022-10-26T22:29:49.324Z,15.87
2022-10-26T22:34:46.006Z,19.13
2022-10-26T22:38:50.344Z,18.70
2022-10-26T22:42:52.611Z,18.47
2022-10-26T22:46:54.821Z,16.27
2022-10-26T22:50:57.042Z,15.87
2022-10-26T22:54:58.928Z,15.03
2022-10-26T22:59:01.032Z,19.97
2022-10-26T23:03:02.892Z,16.37
2022-10-26T23:07:04.771Z,17.17
2022-10-26T23:11:09.708Z,17.37
2022-10-26T23:15:11.680Z,18.80
2022-10-26T23:19:13.567Z,18.83
2022-10-26T23:23:16.299Z,15.63
2022-10-26T23:27:18.185Z,16.70
2022-10-26T23:31:22.625Z,16.60
2022-10-26T23:35:24.650Z,16.90
2022-10-26T23:39:26.635Z,17.83
2022-10-26T23:43:28.480Z,20.80
2022-10-26T23:47:30.442Z,19.30
2022-10-26T23:51:32.381Z,16.17
2022-10-26T23:55:34.250Z,18.10
2022-10-26T23:59:36.442Z,15.97
